Time;durP1;ratioP1;P1;durP2;ratioP2;P2;SDS_P1;SDS_P2;PMS_P1;PMS_P2;Temp;Humidity;BMP_temperature;BMP_pressure;BME280_temperature;BME280_humidity;BME280_pressure;Samples;Min_cycle;Max_cycle;Signal;HPM_P1;HPM_P2
2023/04/04 00:00:28;;;;;;;;;;;8.70;91.50;;;;;;5048015;28;19964;-74
2023/04/04 00:02:54;;;;;;;;;;;8.70;91.60;;;;;;5047822;28;20399;-73
2023/04/04 00:05:20;;;;;;;;;;;8.70;91.50;;;;;;5046824;28;20007;-74
2023/04/04 00:07:46;;;;;;;;;;;8.70;91.50;;;;;;5048127;28;20295;-74
2023/04/04 00:10:11;;;;;;;;;;;8.70;91.50;;;;;;5046851;28;20284;-74
2023/04/04 00:12:37;;;;;;;;;;;8.70;91.50;;;;;;5047036;28;19915;-77
2023/04/04 00:15:03;;;;;;;;;;;8.70;91.50;;;;;;5048123;28;19913;-77
2023/04/04 00:17:29;;;;;;;;;;;8.60;91.50;;;;;;5048186;28;19968;-77
2023/04/04 00:19:56;;;;;;;;;;;8.60;91.50;;;;;;5048254;28;19951;-77
2023/04/04 00:22:21;;;;;;;;;;;8.60;91.50;;;;;;5047072;28;20284;-77
2023/04/04 00:24:47;;;;;;;;;;;8.60;91.50;;;;;;5048171;28;19919;-77
2023/04/04 00:27:13;;;;;;;;;;;8.60;91.50;;;;;;5046776;28;19970;-77
2023/04/04 00:29:39;;;;;;;;;;;8.60;91.50;;;;;;5048350;28;19939;-77
2023/04/04 00:32:04;;;;;;;;;;;8.60;91.50;;;;;;5052564;28;20381;-77
2023/04/04 00:34:30;;;;;;;;;;;8.60;91.50;;;;;;5054572;28;19913;-77
2023/04/04 00:36:56;;;;;;;;;;;8.60;91.60;;;;;;5053400;28;19920;-77
2023/04/04 00:39:22;;;;;;;;;;;8.50;91.60;;;;;;5053463;28;19921;-77
2023/04/04 00:41:48;;;;;;;;;;;8.60;91.60;;;;;;5054646;28;19962;-77
2023/04/04 00:44:14;;;;;;;;;;;8.50;91.60;;;;;;5054528;28;19917;-77
2023/04/04 00:46:40;;;;;;;;;;;8.50;91.60;;;;;;5054436;28;19909;-77
2023/04/04 00:49:05;;;;;;;;;;;8.50;91.60;;;;;;5054580;28;19908;-77
2023/04/04 00:51:31;;;;;;;;;;;8.50;91.60;;;;;;5053387;28;19951;-77
2023/04/04 00:53:57;;;;;;;;;;;8.40;91.50;;;;;;5054367;28;20372;-77
2023/04/04 00:56:24;;;;;;;;;;;8.40;91.50;;;;;;5054463;28;19905;-77
2023/04/04 00:58:49;;;;;;;;;;;8.50;91.60;;;;;;5054695;28;19916;-77
2023/04/04 01:01:15;;;;;;;;;;;8.50;91.50;;;;;;5053193;28;19913;-77
2023/04/04 01:03:41;;;;;;;;;;;8.40;91.50;;;;;;5054135;28;19927;-77
2023/04/04 01:06:07;;;;;;;;;;;8.40;91.50;;;;;;5054299;28;20375;-77
2023/04/04 01:08:35;;;;;;;;;;;8.40;91.50;;;;;;5053168;28;19912;-77
2023/04/04 01:11:00;;;;;;;;;;;8.40;91.60;;;;;;5054559;28;19911;-77
2023/04/04 01:13:26;;;;;;;;;;;8.30;91.50;;;;;;5054306;28;19905;-77
2023/04/04 01:15:52;;;;;;;;;;;8.40;91.60;;;;;;5054161;28;20372;-77
2023/04/04 01:18:18;;;;;;;;;;;8.40;91.60;;;;;;5054273;28;19920;-77
2023/04/04 01:20:55;;;;;;;;;;;8.40;91.60;;;;;;5054393;28;19913;-77
2023/04/04 01:23:22;;;;;;;;;;;8.40;91.60;;;;;;5054367;28;19948;-77
2023/04/04 01:25:47;;;;;;;;;;;8.40;91.60;;;;;;5052869;28;19905;-77
2023/04/04 01:28:13;;;;;;;;;;;8.50;91.60;;;;;;5054156;28;20250;-77
2023/04/04 01:30:39;;;;;;;;;;;8.50;91.60;;;;;;5052792;28;19905;-77
2023/04/04 01:33:16;;;;;;;;;;;8.50;91.60;;;;;;5054126;28;20417;-77
2023/04/04 01:35:45;;;;;;;;;;;8.50;91.60;;;;;;5052709;28;19908;-77
2023/04/04 01:38:26;;;;;;;;;;;8.50;91.50;;;;;;5054196;28;20280;-77
2023/04/04 01:41:02;;;;;;;;;;;8.50;91.50;;;;;;5054267;28;19962;-77
2023/04/04 01:43:31;;;;;;;;;;;8.40;91.40;;;;;;5051798;28;19915;-77
2023/04/04 01:45:57;;;;;;;;;;;8.40;91.50;;;;;;5050813;28;19909;-77
2023/04/04 01:48:23;;;;;;;;;;;8.30;91.50;;;;;;5050960;28;19955;-77
2023/04/04 01:50:49;;;;;;;;;;;8.30;91.60;;;;;;5050802;28;19909;-77
2023/04/04 01:53:14;;;;;;;;;;;8.20;91.60;;;;;;5050934;28;19917;-77
2023/04/04 01:55:41;;;;;;;;;;;8.20;91.80;;;;;;5050747;28;19905;-77
2023/04/04 01:58:06;;;;;;;;;;;8.20;91.60;;;;;;5050769;28;20262;-77
2023/04/04 02:00:32;;;;;;;;;;;8.20;91.70;;;;;;5049767;28;19955;-77
2023/04/04 02:02:59;;;;;;;;;;;8.20;91.70;;;;;;5049114;28;20341;-77
2023/04/04 02:05:24;;;;;;;;;;;8.20;91.60;;;;;;5050743;28;19923;-77
2023/04/04 02:07:50;;;;;;;;;;;8.20;91.60;;;;;;5050740;28;19913;-77
2023/04/04 02:10:16;;;;;;;;;;;8.20;91.60;;;;;;5050592;28;19909;-77
2023/04/04 02:12:42;;;;;;;;;;;8.30;91.70;;;;;;5050380;28;20292;-77
2023/04/04 02:15:08;;;;;;;;;;;8.30;91.70;;;;;;5050472;28;19909;-77
2023/04/04 02:17:33;;;;;;;;;;;8.30;91.60;;;;;;5050418;28;20311;-77
2023/04/04 02:19:59;;;;;;;;;;;8.30;91.60;;;;;;5050295;28;20031;-77
2023/04/04 02:22:24;;;;;;;;;;;8.30;91.60;;;;;;5050278;28;19909;-77
2023/04/04 02:24:50;;;;;;;;;;;8.40;91.60;;;;;;5050176;28;19956;-77
2023/04/04 02:27:15;;;;;;;;;;;8.40;91.60;;;;;;5050202;28;19918;-77
2023/04/04 02:29:41;;;;;;;;;;;8.30;91.50;;;;;;5050138;28;19916;-77
2023/04/04 02:32:07;;;;;;;;;;;8.30;91.50;;;;;;5050227;28;20016;-77
2023/04/04 02:34:32;;;;;;;;;;;8.30;91.60;;;;;;5049956;28;20007;-77
2023/04/04 02:36:58;;;;;;;;;;;8.40;91.60;;;;;;5050072;28;19912;-77
2023/04/04 02:39:23;;;;;;;;;;;8.40;91.60;;;;;;5048822;28;19909;-77
2023/04/04 02:41:50;;;;;;;;;;;8.40;91.60;;;;;;5049914;28;19909;-77
2023/04/04 02:44:15;;;;;;;;;;;8.50;91.60;;;;;;5049919;28;20326;-77
2023/04/04 02:46:41;;;;;;;;;;;8.50;91.60;;;;;;5049934;28;19922;-77
2023/04/04 02:49:06;;;;;;;;;;;8.50;91.50;;;;;;5049796;28;19909;-77
2023/04/04 02:51:32;;;;;;;;;;;8.60;91.50;;;;;;5049885;28;19909;-77
2023/04/04 02:53:58;;;;;;;;;;;8.60;91.50;;;;;;5049327;28;20004;-78
2023/04/04 02:56:23;;;;;;;;;;;8.60;91.50;;;;;;5049733;28;20300;-77
2023/04/04 02:58:49;;;;;;;;;;;8.50;91.50;;;;;;5049623;28;19995;-77
2023/04/04 03:01:14;;;;;;;;;;;8.50;91.50;;;;;;5049507;28;19916;-77
2023/04/04 03:03:40;;;;;;;;;;;8.40;91.50;;;;;;5049290;28;20316;-77
2023/04/04 03:06:06;;;;;;;;;;;8.40;91.50;;;;;;5049458;28;20011;-77
2023/04/04 03:08:31;;;;;;;;;;;8.30;91.60;;;;;;5049340;28;19908;-77
2023/04/04 03:10:57;;;;;;;;;;;8.30;91.60;;;;;;5047830;28;19912;-77
2023/04/04 03:13:22;;;;;;;;;;;8.30;91.60;;;;;;5049258;28;19913;-77
2023/04/04 03:15:48;;;;;;;;;;;8.30;91.60;;;;;;5049225;28;19905;-77
2023/04/04 03:18:14;;;;;;;;;;;8.30;91.70;;;;;;5049125;28;19915;-77
2023/04/04 03:20:39;;;;;;;;;;;8.30;91.70;;;;;;5049227;28;20292;-77
2023/04/04 03:23:05;;;;;;;;;;;8.30;91.70;;;;;;5049015;28;20339;-77
2023/04/04 03:25:30;;;;;;;;;;;8.30;91.70;;;;;;5048948;28;19959;-77
2023/04/04 03:27:56;;;;;;;;;;;8.30;91.60;;;;;;5048987;28;19915;-75
2023/04/04 03:30:22;;;;;;;;;;;8.30;91.60;;;;;;5049089;28;20294;-75
2023/04/04 03:32:49;;;;;;;;;;;8.30;91.70;;;;;;5047707;28;20042;-75
2023/04/04 03:35:15;;;;;;;;;;;8.30;91.70;;;;;;5048850;28;19913;-75
2023/04/04 03:37:41;;;;;;;;;;;8.30;91.70;;;;;;5048818;28;19931;-75
2023/04/04 03:40:08;;;;;;;;;;;8.40;91.70;;;;;;5048706;28;19958;-75
2023/04/04 03:42:33;;;;;;;;;;;8.40;91.70;;;;;;5049001;28;19909;-75
2023/04/04 03:44:59;;;;;;;;;;;8.40;91.70;;;;;;5048629;28;19920;-75
2023/04/04 03:47:25;;;;;;;;;;;8.40;91.70;;;;;;5048536;28;19963;-75
2023/04/04 03:49:51;;;;;;;;;;;8.40;91.70;;;;;;5048793;28;19956;-75
2023/04/04 03:52:17;;;;;;;;;;;8.40;91.70;;;;;;5048568;28;20352;-76
2023/04/04 03:54:43;;;;;;;;;;;8.50;91.80;;;;;;5048146;28;20306;-75
2023/04/04 03:57:09;;;;;;;;;;;8.50;91.80;;;;;;5048205;28;20262;-75
2023/04/04 03:59:34;;;;;;;;;;;8.60;91.80;;;;;;5048251;28;20272;-69
2023/04/04 04:02:00;;;;;;;;;;;8.70;91.80;;;;;;5048116;28;19940;-76
2023/04/04 04:04:25;;;;;;;;;;;8.80;91.80;;;;;;5048296;28;19924;-75
2023/04/04 04:06:51;;;;;;;;;;;8.80;91.70;;;;;;5045923;28;19909;-75
2023/04/04 04:09:17;;;;;;;;;;;8.90;91.70;;;;;;5047086;28;20410;-76
2023/04/04 04:11:43;;;;;;;;;;;9.00;91.70;;;;;;5048391;28;20000;-76
2023/04/04 04:14:08;;;;;;;;;;;9.00;91.70;;;;;;5048251;28;20343;-76
2023/04/04 04:16:37;;;;;;;;;;;9.10;91.70;;;;;;5048168;28;20312;-76
2023/04/04 04:19:03;;;;;;;;;;;9.10;91.70;;;;;;5048132;28;19948;-76
2023/04/04 04:21:29;;;;;;;;;;;9.10;91.70;;;;;;5048442;28;20349;-75
2023/04/04 04:23:54;;;;;;;;;;;9.10;91.70;;;;;;5048148;28;20270;-76
2023/04/04 04:26:20;;;;;;;;;;;9.20;91.70;;;;;;5047981;28;20281;-76
2023/04/04 04:28:47;;;;;;;;;;;9.20;91.70;;;;;;5048157;28;19911;-75
2023/04/04 04:31:12;;;;;;;;;;;9.30;91.70;;;;;;5048424;28;19971;-76
2023/04/04 04:33:38;;;;;;;;;;;9.30;91.70;;;;;;5048201;28;19912;-76
2023/04/04 04:36:05;;;;;;;;;;;9.40;91.70;;;;;;5048040;28;19915;-76
2023/04/04 04:38:32;;;;;;;;;;;9.40;91.70;;;;;;5047994;28;19909;-76
2023/04/04 04:40:57;;;;;;;;;;;9.50;91.70;;;;;;5048020;28;19904;-76
2023/04/04 04:43:23;;;;;;;;;;;9.60;91.70;;;;;;5048035;28;19909;-76
2023/04/04 04:45:49;;;;;;;;;;;9.60;91.70;;;;;;5047856;28;19928;-76
2023/04/04 04:48:18;;;;;;;;;;;9.60;91.60;;;;;;5047863;28;20438;-75
2023/04/04 04:50:44;;;;;;;;;;;9.60;91.70;;;;;;5047957;28;19904;-76
2023/04/04 04:53:09;;;;;;;;;;;9.70;91.70;;;;;;5047880;28;19905;-76
2023/04/04 04:55:35;;;;;;;;;;;9.70;91.70;;;;;;5047689;28;19920;-75
2023/04/04 04:58:02;;;;;;;;;;;9.70;91.70;;;;;;5046588;28;19911;-76
2023/04/04 05:00:27;;;;;;;;;;;9.70;91.60;;;;;;5047434;28;19970;-75
2023/04/04 05:02:54;;;;;;;;;;;9.80;91.60;;;;;;5047497;28;20368;-76
2023/04/04 05:05:19;;;;;;;;;;;9.80;91.70;;;;;;5047669;28;20277;-75
2023/04/04 05:07:46;;;;;;;;;;;9.80;91.60;;;;;;5047899;28;19920;-75
2023/04/04 05:10:11;;;;;;;;;;;9.80;91.60;;;;;;5047598;28;20328;-76
2023/04/04 05:12:43;;;;;;;;;;;9.80;91.70;;;;;;5047600;28;20007;-76
2023/04/04 05:15:09;;;;;;;;;;;9.80;91.70;;;;;;5047439;28;19905;-76
2023/04/04 05:17:35;;;;;;;;;;;9.80;91.60;;;;;;5048654;28;19909;-76
2023/04/04 05:20:01;;;;;;;;;;;9.80;91.60;;;;;;5049612;28;20106;-76
2023/04/04 05:22:27;;;;;;;;;;;9.80;91.60;;;;;;5050851;28;19912;-76
2023/04/04 05:24:52;;;;;;;;;;;9.80;91.60;;;;;;5050696;28;20023;-76
2023/04/04 05:27:18;;;;;;;;;;;9.80;91.60;;;;;;5051175;28;20019;-76
2023/04/04 05:29:45;;;;;;;;;;;9.70;91.60;;;;;;5051449;28;19909;-75
2023/04/04 05:32:11;;;;;;;;;;;9.70;91.60;;;;;;5050492;28;19956;-75
2023/04/04 05:34:36;;;;;;;;;;;9.70;91.70;;;;;;5033015;28;20410;-76
2023/04/04 05:37:02;;;;;;;;;;;9.70;91.70;;;;;;5049728;28;19909;-76
2023/04/04 05:39:27;;;;;;;;;;;9.70;91.70;;;;;;5051186;28;19943;-76
2023/04/04 05:41:53;;;;;;;;;;;9.70;91.70;;;;;;5051539;28;19939;-75
2023/04/04 05:44:19;;;;;;;;;;;9.70;91.70;;;;;;5049540;28;19916;-76
2023/04/04 05:46:44;;;;;;;;;;;9.70;91.70;;;;;;5049391;28;19912;-76
2023/04/04 05:49:10;;;;;;;;;;;9.70;91.70;;;;;;5050776;28;19923;-76
2023/04/04 05:51:36;;;;;;;;;;;9.70;91.70;;;;;;5050826;28;19905;-76
2023/04/04 05:54:02;;;;;;;;;;;9.70;91.70;;;;;;5050798;28;19911;-76
2023/04/04 05:56:27;;;;;;;;;;;9.70;91.70;;;;;;5050701;28;19904;-76
2023/04/04 05:58:53;;;;;;;;;;;9.70;91.70;;;;;;5049110;28;20289;-75
2023/04/04 06:01:19;;;;;;;;;;;9.70;91.70;;;;;;5050518;28;19940;-76
2023/04/04 06:03:44;;;;;;;;;;;9.70;91.70;;;;;;5048949;28;19971;-76
2023/04/04 06:06:10;;;;;;;;;;;9.70;91.70;;;;;;5050475;28;19913;-75
2023/04/04 06:08:36;;;;;;;;;;;9.70;91.70;;;;;;5050216;28;19909;-76
2023/04/04 06:11:01;;;;;;;;;;;9.70;91.70;;;;;;5050165;28;19909;-76
2023/04/04 06:13:27;;;;;;;;;;;9.80;91.70;;;;;;5050310;28;19912;-76
2023/04/04 06:15:52;;;;;;;;;;;9.80;91.90;;;;;;5050175;28;19904;-76
2023/04/04 06:18:18;;;;;;;;;;;9.80;91.70;;;;;;5050192;28;19923;-76
2023/04/04 06:20:43;;;;;;;;;;;9.80;91.70;;;;;;5050035;28;19909;-76
2023/04/04 06:23:09;;;;;;;;;;;9.80;91.70;;;;;;5050123;28;20384;-76
2023/04/04 06:25:35;;;;;;;;;;;9.70;91.70;;;;;;5049942;28;20007;-77
2023/04/04 06:28:02;;;;;;;;;;;9.70;91.70;;;;;;5049891;28;20373;-76
2023/04/04 06:30:28;;;;;;;;;;;9.70;91.70;;;;;;5048861;28;19905;-77
2023/04/04 06:32:53;;;;;;;;;;;9.70;91.70;;;;;;5049846;28;19908;-76
2023/04/04 06:35:19;;;;;;;;;;;9.80;91.70;;;;;;5049741;28;20269;-75
2023/04/04 06:37:45;;;;;;;;;;;9.80;91.70;;;;;;5049748;28;20014;-76
2023/04/04 06:40:11;;;;;;;;;;;9.80;91.70;;;;;;5050242;28;19920;-76
2023/04/04 06:42:36;;;;;;;;;;;9.80;91.70;;;;;;5049557;28;19971;-76
2023/04/04 06:45:02;;;;;;;;;;;9.80;91.70;;;;;;5049481;28;19913;-76
2023/04/04 06:47:28;;;;;;;;;;;9.80;91.70;;;;;;5049673;28;19916;-76
2023/04/04 06:49:53;;;;;;;;;;;9.80;91.70;;;;;;5049505;28;20372;-76
2023/04/04 06:52:19;;;;;;;;;;;9.80;91.70;;;;;;5049359;28;19916;-76
2023/04/04 06:54:44;;;;;;;;;;;9.80;91.70;;;;;;5048179;28;20062;-76
2023/04/04 06:57:10;;;;;;;;;;;9.80;91.70;;;;;;5049084;28;19912;-76
2023/04/04 06:59:35;;;;;;;;;;;9.80;91.70;;;;;;5049195;28;19909;-76
2023/04/04 07:02:01;;;;;;;;;;;9.80;91.70;;;;;;5047787;28;19967;-76
2023/04/04 07:04:26;;;;;;;;;;;9.90;91.70;;;;;;5048968;28;19921;-76
2023/04/04 07:06:52;;;;;;;;;;;9.90;91.70;;;;;;5049360;28;19999;-76
2023/04/04 07:09:17;;;;;;;;;;;9.90;91.70;;;;;;5049188;28;19940;-76
2023/04/04 07:11:43;;;;;;;;;;;9.90;91.70;;;;;;5049680;28;19908;-75
2023/04/04 07:14:09;;;;;;;;;;;10.00;91.80;;;;;;5048838;28;19909;-76
2023/04/04 07:16:35;;;;;;;;;;;10.00;91.80;;;;;;5049048;28;20335;-76
2023/04/04 07:19:01;;;;;;;;;;;10.10;91.80;;;;;;5049004;28;19915;-76
2023/04/04 07:21:27;;;;;;;;;;;10.10;92.00;;;;;;5048959;28;19909;-76
2023/04/04 07:23:53;;;;;;;;;;;10.20;91.80;;;;;;5047596;28;19912;-76
2023/04/04 07:26:18;;;;;;;;;;;10.20;91.80;;;;;;5048661;28;20308;-76
2023/04/04 07:28:44;;;;;;;;;;;10.20;92.10;;;;;;5048774;28;19908;-76
2023/04/04 07:31:10;;;;;;;;;;;10.20;91.90;;;;;;5048668;28;19913;-76
2023/04/04 07:33:35;;;;;;;;;;;10.30;91.80;;;;;;5048880;28;19909;-76
2023/04/04 07:36:02;;;;;;;;;;;10.30;91.80;;;;;;5047360;28;19916;-77
2023/04/04 07:38:27;;;;;;;;;;;10.30;91.80;;;;;;5049018;28;19997;-74
2023/04/04 07:40:54;;;;;;;;;;;10.40;91.80;;;;;;5048503;28;19944;-74
2023/04/04 07:43:20;;;;;;;;;;;10.40;91.90;;;;;;5048614;28;19912;-74
2023/04/04 07:45:45;;;;;;;;;;;10.40;91.90;;;;;;5048263;28;20376;-74
2023/04/04 07:48:11;;;;;;;;;;;10.40;91.80;;;;;;5048463;28;19909;-73
2023/04/04 07:50:37;;;;;;;;;;;10.40;91.80;;;;;;5048555;28;20396;-74
2023/04/04 07:53:02;;;;;;;;;;;10.40;91.80;;;;;;5046964;28;19923;-74
2023/04/04 07:55:28;;;;;;;;;;;10.40;91.90;;;;;;5046717;28;19912;-74
2023/04/04 07:57:53;;;;;;;;;;;10.50;91.90;;;;;;5048141;28;19962;-74
2023/04/04 08:00:20;;;;;;;;;;;10.50;91.90;;;;;;5048076;28;20331;-74
2023/04/04 08:02:50;;;;;;;;;;;10.60;91.90;;;;;;5046790;28;19956;-74
2023/04/04 08:05:15;;;;;;;;;;;10.60;91.90;;;;;;5048240;28;19956;-74
2023/04/04 08:07:41;;;;;;;;;;;10.70;91.90;;;;;;5047143;28;19956;-73
2023/04/04 08:10:07;;;;;;;;;;;10.70;91.90;;;;;;5046827;28;19908;-74
2023/04/04 08:12:33;;;;;;;;;;;10.80;92.00;;;;;;5048226;28;20365;-74
2023/04/04 08:14:59;;;;;;;;;;;10.90;92.00;;;;;;5047783;28;20339;-74
2023/04/04 08:17:24;;;;;;;;;;;11.00;92.00;;;;;;5048023;28;19931;-74
2023/04/04 08:19:50;;;;;;;;;;;11.10;91.90;;;;;;5047862;28;19912;-75
2023/04/04 08:22:15;;;;;;;;;;;11.20;91.90;;;;;;5047722;28;20024;-74
2023/04/04 08:24:41;;;;;;;;;;;11.20;91.90;;;;;;5047626;28;20485;-74
2023/04/04 08:27:07;;;;;;;;;;;11.20;91.80;;;;;;5047764;28;19912;-73
2023/04/04 08:29:33;;;;;;;;;;;11.20;91.80;;;;;;5047634;28;20438;-73
2023/04/04 08:31:59;;;;;;;;;;;11.20;91.80;;;;;;5046726;28;19905;-74
2023/04/04 08:34:24;;;;;;;;;;;11.20;91.80;;;;;;5047803;28;19912;-72
2023/04/04 08:36:51;;;;;;;;;;;11.20;91.80;;;;;;5047565;28;19962;-74
2023/04/04 08:39:16;;;;;;;;;;;11.20;91.90;;;;;;5046006;28;19995;-73
2023/04/04 08:41:42;;;;;;;;;;;11.20;91.90;;;;;;5047422;28;20314;-71
2023/04/04 08:44:09;;;;;;;;;;;11.20;91.80;;;;;;5047531;28;19982;-71
2023/04/04 08:46:35;;;;;;;;;;;11.30;91.90;;;;;;5047323;28;19943;-74
2023/04/04 08:49:03;;;;;;;;;;;11.30;91.80;;;;;;5046383;28;20420;-74
2023/04/04 08:51:30;;;;;;;;;;;11.30;91.80;;;;;;5047374;28;20005;-74
2023/04/04 08:53:56;;;;;;;;;;;11.20;91.80;;;;;;5050546;28;19908;-74
2023/04/04 08:56:22;;;;;;;;;;;11.20;91.90;;;;;;5051201;28;19908;-74
2023/04/04 08:58:48;;;;;;;;;;;11.30;91.90;;;;;;5050910;28;19970;-74
2023/04/04 09:01:15;;;;;;;;;;;11.30;91.90;;;;;;5051064;28;20381;-74
2023/04/04 09:03:41;;;;;;;;;;;11.30;92.00;;;;;;5051329;28;19974;-74
2023/04/04 09:06:07;;;;;;;;;;;11.40;92.00;;;;;;5050695;28;19904;-71
2023/04/04 09:08:33;;;;;;;;;;;11.50;92.00;;;;;;5042400;28;19972;-72
2023/04/04 09:11:01;;;;;;;;;;;11.60;92.00;;;;;;5040432;28;19909;-74
2023/04/04 09:13:26;;;;;;;;;;;11.70;92.00;;;;;;5041669;28;20315;-71
2023/04/04 09:15:56;;;;;;;;;;;11.80;92.00;;;;;;5042656;28;19922;-71
2023/04/04 09:18:22;;;;;;;;;;;11.90;92.00;;;;;;5040295;28;19904;-70
2023/04/04 09:20:47;;;;;;;;;;;12.10;91.90;;;;;;5044297;28;19954;-71
2023/04/04 09:23:14;;;;;;;;;;;12.20;91.90;;;;;;5036849;28;19930;-70
2023/04/04 09:25:45;;;;;;;;;;;12.30;91.90;;;;;;5037037;28;20006;-69
2023/04/04 09:28:11;;;;;;;;;;;12.30;91.80;;;;;;5041032;28;19919;-70
2023/04/04 09:30:37;;;;;;;;;;;12.20;91.80;;;;;;5037180;28;19909;-70
2023/04/04 09:33:03;;;;;;;;;;;12.20;91.80;;;;;;5041644;28;19920;-69
2023/04/04 09:35:31;;;;;;;;;;;12.20;91.90;;;;;;5036267;28;19905;-70
2023/04/04 09:37:56;;;;;;;;;;;12.30;91.90;;;;;;5048583;28;19905;-70
2023/04/04 09:40:22;;;;;;;;;;;12.30;91.90;;;;;;5050875;28;19916;-70
2023/04/04 09:42:49;;;;;;;;;;;12.30;91.90;;;;;;5039263;28;19983;-69
2023/04/04 09:45:16;;;;;;;;;;;12.30;91.90;;;;;;5035789;28;19975;-70
2023/04/04 09:47:42;;;;;;;;;;;12.30;91.90;;;;;;5030841;28;19991;-70
2023/04/04 09:50:07;;;;;;;;;;;12.20;91.90;;;;;;5031042;28;19994;-71
2023/04/04 09:52:36;;;;;;;;;;;12.30;91.90;;;;;;5031108;28;20028;-71
2023/04/04 09:55:03;;;;;;;;;;;12.30;91.90;;;;;;5031181;28;19950;-70
2023/04/04 09:57:33;;;;;;;;;;;12.20;91.90;;;;;;5029520;28;19913;-71
2023/04/04 10:00:02;;;;;;;;;;;12.20;91.90;;;;;;5031063;28;19945;-70
2023/04/04 10:02:29;;;;;;;;;;;12.30;92.00;;;;;;5030690;28;19919;-71
2023/04/04 10:04:56;;;;;;;;;;;12.40;92.00;;;;;;5034883;28;19921;-72
2023/04/04 10:07:28;;;;;;;;;;;12.40;91.90;;;;;;5031076;28;19904;-76
2023/04/04 10:09:54;;;;;;;;;;;12.50;92.00;;;;;;5032034;28;20382;-74
2023/04/04 10:12:22;;;;;;;;;;;12.60;92.00;;;;;;5031275;28;19979;-72
2023/04/04 10:14:48;;;;;;;;;;;12.70;92.00;;;;;;5029823;28;20313;-73
2023/04/04 10:17:14;;;;;;;;;;;12.70;91.90;;;;;;5029674;28;19974;-71
2023/04/04 10:19:40;;;;;;;;;;;12.70;91.90;;;;;;5031259;28;20291;-73
2023/04/04 10:22:06;;;;;;;;;;;12.80;92.00;;;;;;5029575;28;19999;-71
2023/04/04 10:24:32;;;;;;;;;;;12.90;92.00;;;;;;5031043;28;20497;-73
2023/04/04 10:26:57;;;;;;;;;;;12.90;92.00;;;;;;5030073;28;19905;-73
2023/04/04 10:29:23;;;;;;;;;;;12.90;91.90;;;;;;5031503;28;20034;-75
2023/04/04 10:31:57;;;;;;;;;;;13.00;91.90;;;;;;5032066;28;19996;-78
2023/04/04 10:34:39;;;;;;;;;;;13.00;91.90;;;;;;5030278;28;19916;-70
2023/04/04 10:37:11;;;;;;;;;;;13.00;91.80;;;;;;5030262;28;19959;-72
2023/04/04 10:39:41;;;;;;;;;;;13.00;91.90;;;;;;5030540;28;19912;-72
2023/04/04 10:42:09;;;;;;;;;;;13.00;91.90;;;;;;5030936;28;20001;-74
2023/04/04 10:44:35;;;;;;;;;;;13.00;91.90;;;;;;5030902;28;20412;-72
2023/04/04 10:47:07;;;;;;;;;;;13.00;92.20;;;;;;5030303;28;19905;-72
2023/04/04 10:49:33;;;;;;;;;;;13.10;92.10;;;;;;5028642;28;19944;-73
2023/04/04 10:51:58;;;;;;;;;;;13.30;92.10;;;;;;5030092;28;19998;-74
2023/04/04 10:54:25;;;;;;;;;;;13.50;92.20;;;;;;5030591;28;20513;-73
2023/04/04 10:56:51;;;;;;;;;;;13.70;92.10;;;;;;5030617;28;19916;-73
2023/04/04 10:59:17;;;;;;;;;;;13.90;92.10;;;;;;5029121;28;20385;-74
2023/04/04 11:01:49;;;;;;;;;;;14.00;92.00;;;;;;5029753;28;20433;-73
2023/04/04 11:04:18;;;;;;;;;;;14.30;92.10;;;;;;5030346;28;20020;-72
2023/04/04 11:07:02;;;;;;;;;;;14.50;92.20;;;;;;5030820;28;19909;-74
2023/04/04 11:09:47;;;;;;;;;;;14.80;92.10;;;;;;5030558;28;20012;-74
2023/04/04 11:12:20;;;;;;;;;;;14.90;92.00;;;;;;5033614;28;20354;-74
2023/04/04 11:14:55;;;;;;;;;;;14.90;91.90;;;;;;5039906;28;19916;-74
2023/04/04 11:17:40;;;;;;;;;;;14.80;91.90;;;;;;5044316;28;19908;-72
2023/04/04 11:20:10;;;;;;;;;;;14.80;92.00;;;;;;5049670;28;19939;-74
2023/04/04 11:22:36;;;;;;;;;;;14.90;92.30;;;;;;5049721;28;19905;-74
2023/04/04 11:25:20;;;;;;;;;;;15.10;92.20;;;;;;5049192;28;19916;-74
2023/04/04 11:27:47;;;;;;;;;;;15.30;92.40;;;;;;5049490;28;19912;-73
2023/04/04 11:30:13;;;;;;;;;;;15.70;92.50;;;;;;5047999;28;20345;-74
2023/04/04 11:32:43;;;;;;;;;;;16.10;92.80;;;;;;5048903;28;19951;-74
2023/04/04 11:35:09;;;;;;;;;;;16.90;93.30;;;;;;5048762;28;19944;-76
2023/04/04 11:37:42;;;;;;;;;;;17.90;93.40;;;;;;5049097;28;20144;-72
2023/04/04 11:40:10;;;;;;;;;;;18.80;93.30;;;;;;5043917;28;19916;-72
2023/04/04 11:42:39;;;;;;;;;;;19.50;93.20;;;;;;5029281;28;19909;-72
2023/04/04 11:45:06;;;;;;;;;;;20.00;93.10;;;;;;5028958;28;20351;-73
2023/04/04 11:47:32;;;;;;;;;;;20.50;93.10;;;;;;5029042;28;19915;-72
2023/04/04 11:49:59;;;;;;;;;;;20.40;92.50;;;;;;5029026;28;19905;-72
2023/04/04 11:52:25;;;;;;;;;;;19.90;92.40;;;;;;5029054;28;19913;-72
2023/04/04 11:54:51;;;;;;;;;;;19.30;92.50;;;;;;5028588;28;19915;-72
2023/04/04 11:57:18;;;;;;;;;;;19.00;93.00;;;;;;5028225;28;20261;-72
2023/04/04 11:59:50;;;;;;;;;;;19.30;93.50;;;;;;5028963;28;19987;-73
2023/04/04 12:02:18;;;;;;;;;;;19.50;93.30;;;;;;5029209;28;19909;-73
2023/04/04 12:04:44;;;;;;;;;;;19.70;93.00;;;;;;5028620;28;19998;-72
2023/04/04 12:07:11;;;;;;;;;;;19.70;92.80;;;;;;5027964;28;19909;-73
2023/04/04 12:09:39;;;;;;;;;;;19.50;92.70;;;;;;5034735;28;19961;-69
2023/04/04 12:12:06;;;;;;;;;;;19.60;93.10;;;;;;5027692;28;20455;-71
2023/04/04 12:14:32;;;;;;;;;;;19.60;93.10;;;;;;5028845;28;19905;-72
2023/04/04 12:16:58;;;;;;;;;;;19.50;93.00;;;;;;5028592;28;19967;-70
2023/04/04 12:19:24;;;;;;;;;;;19.40;93.00;;;;;;5028829;28;19996;-72
2023/04/04 12:21:51;;;;;;;;;;;19.50;93.10;;;;;;5041130;28;19935;-72
2023/04/04 12:24:16;;;;;;;;;;;19.50;92.90;;;;;;5040027;28;19955;-70
2023/04/04 12:26:43;;;;;;;;;;;19.40;92.70;;;;;;5038222;28;20316;-73
2023/04/04 12:29:10;;;;;;;;;;;19.10;92.70;;;;;;5037638;28;19905;-74
2023/04/04 12:31:37;;;;;;;;;;;19.00;92.80;;;;;;5048209;28;20234;-73
2023/04/04 12:34:03;;;;;;;;;;;19.00;92.80;;;;;;5049167;28;19905;-73
2023/04/04 12:36:30;;;;;;;;;;;18.90;92.70;;;;;;5048359;28;19967;-73
2023/04/04 12:38:59;;;;;;;;;;;18.70;92.80;;;;;;5047490;28;20300;-72
2023/04/04 12:41:26;;;;;;;;;;;19.00;93.20;;;;;;5047406;28;19912;-73
2023/04/04 12:44:12;;;;;;;;;;;19.20;93.10;;;;;;5047957;28;19909;-74
2023/04/04 12:46:39;;;;;;;;;;;19.60;93.40;;;;;;5047971;28;19908;-73
2023/04/04 12:49:05;;;;;;;;;;;20.00;93.40;;;;;;5047672;28;19916;-72
2023/04/04 12:51:32;;;;;;;;;;;20.40;93.30;;;;;;5048493;28;19908;-73
2023/04/04 12:53:58;;;;;;;;;;;20.70;93.40;;;;;;5038632;28;19909;-75
2023/04/04 12:56:24;;;;;;;;;;;20.90;93.40;;;;;;5028925;28;19909;-76
2023/04/04 12:58:50;;;;;;;;;;;21.20;93.40;;;;;;5029630;28;19909;-77
2023/04/04 13:01:16;;;;;;;;;;;21.20;93.20;;;;;;5010769;28;19913;-73
2023/04/04 13:03:42;;;;;;;;;;;21.10;93.20;;;;;;5028026;28;19924;-72
2023/04/04 13:06:31;;;;;;;;;;;20.90;93.20;;;;;;5027937;28;20008;-71
2023/04/04 13:08:56;;;;;;;;;;;20.90;93.30;;;;;;5025020;28;19920;-70
2023/04/04 13:11:22;;;;;;;;;;;20.80;93.30;;;;;;5028513;28;19975;-73
2023/04/04 13:13:58;;;;;;;;;;;20.60;93.20;;;;;;5028910;28;19924;-74
2023/04/04 13:16:31;;;;;;;;;;;20.30;93.60;;;;;;5027157;28;19952;-74
2023/04/04 13:18:57;;;;;;;;;;;20.50;93.70;;;;;;5027144;28;19909;-71
2023/04/04 13:21:24;;;;;;;;;;;20.60;93.40;;;;;;5027361;28;19959;-71
2023/04/04 13:23:50;;;;;;;;;;;20.50;93.30;;;;;;5027589;28;20000;-68
2023/04/04 13:26:16;;;;;;;;;;;20.50;93.40;;;;;;5027889;28;20458;-71
2023/04/04 13:28:42;;;;;;;;;;;20.40;93.20;;;;;;5027028;28;19905;-69
2023/04/04 13:31:09;;;;;;;;;;;20.30;93.20;;;;;;5027054;28;19905;-69
2023/04/04 13:33:34;;;;;;;;;;;20.20;93.10;;;;;;5026266;28;20349;-72
2023/04/04 13:36:00;;;;;;;;;;;19.90;92.90;;;;;;5031571;28;19923;-71
2023/04/04 13:38:26;;;;;;;;;;;19.70;93.00;;;;;;5039265;28;19917;-71
2023/04/04 13:40:52;;;;;;;;;;;19.50;93.10;;;;;;5034927;28;19909;-72
2023/04/04 13:43:18;;;;;;;;;;;19.30;93.00;;;;;;5043214;28;19916;-72
2023/04/04 13:45:43;;;;;;;;;;;19.00;93.10;;;;;;5044138;28;20348;-73
2023/04/04 13:48:10;;;;;;;;;;;18.60;93.00;;;;;;5036912;28;20441;-72
2023/04/04 13:50:37;;;;;;;;;;;18.30;92.80;;;;;;5041528;28;20295;-72
2023/04/04 13:53:02;;;;;;;;;;;18.00;92.70;;;;;;5045102;28;19911;-74
2023/04/04 13:55:28;;;;;;;;;;;17.80;92.90;;;;;;5034815;28;20267;-73
2023/04/04 13:57:53;;;;;;;;;;;17.80;92.90;;;;;;5041019;28;19912;-72
2023/04/04 14:00:19;;;;;;;;;;;17.70;92.80;;;;;;5042119;28;19970;-72
2023/04/04 14:02:45;;;;;;;;;;;17.70;92.80;;;;;;5040148;28;19915;-72
2023/04/04 14:05:11;;;;;;;;;;;17.70;92.70;;;;;;5038589;28;20000;-72
2023/04/04 14:07:37;;;;;;;;;;;17.60;92.70;;;;;;5043789;28;19927;-72
2023/04/04 14:10:04;;;;;;;;;;;17.60;92.60;;;;;;5050969;28;20387;-74
2023/04/04 14:12:30;;;;;;;;;;;17.40;92.50;;;;;;5051585;28;19931;-73
2023/04/04 14:14:55;;;;;;;;;;;17.30;92.40;;;;;;5049999;28;20272;-78
2023/04/04 14:17:21;;;;;;;;;;;17.20;92.50;;;;;;5051162;28;19999;-74
2023/04/04 14:19:46;;;;;;;;;;;17.20;92.50;;;;;;5051116;28;20554;-73